createdAt,value
2022-09-04T00:01:01.281Z,16.47
2022-09-04T00:05:56.849Z,16.42
2022-09-04T00:11:01.574Z,16.39
2022-09-04T00:16:05.319Z,16.36
2022-09-04T00:21:39.916Z,16.33
2022-09-04T00:26:50.339Z,16.31
2022-09-04T00:31:49.545Z,16.25
2022-09-04T00:36:50.071Z,16.27
2022-09-04T00:41:59.837Z,16.24
2022-09-04T00:47:25.748Z,16.20
2022-09-04T00:53:02.467Z,16.15
2022-09-04T00:58:00.469Z,16.11
2022-09-04T01:03:07.275Z,16.09
2022-09-04T01:08:07.635Z,16.05
2022-09-04T01:13:24.430Z,16.02
2022-09-04T01:18:29.791Z,15.98
2022-09-04T01:23:45.124Z,15.98
2022-09-04T01:28:55.202Z,16.00
2022-09-04T01:34:05.133Z,16.02
2022-09-04T01:38:58.561Z,16.02
2022-09-04T01:43:51.853Z,16.04
2022-09-04T01:48:55.724Z,16.06
2022-09-04T01:54:03.895Z,16.06
2022-09-04T01:59:01.277Z,16.05
2022-09-04T02:03:56.229Z,16.07
2022-09-04T02:09:15.946Z,16.05
2022-09-04T02:14:09.350Z,16.02
2022-09-04T02:19:25.208Z,15.98
2022-09-04T02:24:35.189Z,15.97
2022-09-04T02:29:50.046Z,15.94
2022-09-04T02:35:16.993Z,15.92
2022-09-04T02:40:11.995Z,15.93
2022-09-04T02:45:34.296Z,15.94
2022-09-04T02:51:04.818Z,15.95
2022-09-04T02:56:16.579Z,15.95
2022-09-04T03:01:24.826Z,15.97
2022-09-04T03:06:29.204Z,16.00
2022-09-04T03:11:39.114Z,16.02
2022-09-04T03:16:55.676Z,16.04
2022-09-04T03:22:12.345Z,16.07
2022-09-04T03:27:10.689Z,16.07
2022-09-04T03:32:15.476Z,16.10
2022-09-04T03:37:20.861Z,16.10
2022-09-04T03:42:28.408Z,16.09
2022-09-04T03:47:28.870Z,16.08
2022-09-04T03:52:51.160Z,16.07
2022-09-04T03:57:42.705Z,16.06
2022-09-04T04:03:15.529Z,16.03
2022-09-04T04:08:27.521Z,16.01
2022-09-04T04:13:33.391Z,16.00
2022-09-04T04:18:53.762Z,15.98
2022-09-04T04:24:39.098Z,15.99
2022-09-04T04:30:17.375Z,15.99
2022-09-04T04:35:29.417Z,15.99
2022-09-04T04:40:20.976Z,16.01
2022-09-04T04:45:50.984Z,16.05
2022-09-04T04:51:00.952Z,16.07
2022-09-04T04:56:36.441Z,16.07
2022-09-04T05:01:34.414Z,16.06
2022-09-04T05:06:37.000Z,16.07
2022-09-04T05:11:39.911Z,16.05
2022-09-04T05:17:00.080Z,16.09
2022-09-04T05:22:33.583Z,16.11
2022-09-04T05:27:41.673Z,16.13
2022-09-04T05:32:35.877Z,16.14
2022-09-04T05:37:46.212Z,16.17
2022-09-04T05:42:56.879Z,16.17
2022-09-04T05:48:07.307Z,16.19
2022-09-04T05:53:26.130Z,16.22
2022-09-04T05:58:40.592Z,16.22
2022-09-04T06:03:55.318Z,16.25
2022-09-04T06:09:31.589Z,16.29
2022-09-04T06:14:31.892Z,16.31
2022-09-04T06:19:54.440Z,16.34
2022-09-04T06:25:04.825Z,16.39
2022-09-04T06:30:14.561Z,16.42
2022-09-04T06:35:25.205Z,16.47
2022-09-04T06:40:26.045Z,16.52
2022-09-04T06:45:42.236Z,16.58
2022-09-04T06:50:49.770Z,16.62
2022-09-04T06:55:49.799Z,16.69
2022-09-04T07:00:53.521Z,16.76
2022-09-04T07:06:08.614Z,16.80
2022-09-04T07:11:21.054Z,16.83
2022-09-04T07:16:39.148Z,16.89
2022-09-04T07:21:40.166Z,16.92
2022-09-04T07:26:53.358Z,17.00
2022-09-04T07:32:02.565Z,17.08
2022-09-04T07:37:25.956Z,17.17
2022-09-04T07:42:50.867Z,17.27
2022-09-04T07:48:04.816Z,17.37
2022-09-04T07:53:24.269Z,17.50
2022-09-04T07:58:22.049Z,17.63
2022-09-04T08:03:54.411Z,17.70
2022-09-04T08:08:49.105Z,17.75
2022-09-04T08:14:06.384Z,17.77
2022-09-04T08:19:09.449Z,17.82
2022-09-04T08:24:21.726Z,17.88
2022-09-04T08:29:40.244Z,17.99
2022-09-04T08:34:53.155Z,18.05
2022-09-04T08:40:24.141Z,18.12
2022-09-04T08:45:48.302Z,18.20
2022-09-04T08:51:08.264Z,18.21
2022-09-04T08:56:18.710Z,18.28
2022-09-04T09:01:38.520Z,18.34
2022-09-04T09:06:51.677Z,18.41
2022-09-04T09:12:09.125Z,18.51
2022-09-04T09:17:13.237Z,18.58
2022-09-04T09:22:17.084Z,18.60
2022-09-04T09:27:11.846Z,18.54
2022-09-04T09:32:28.971Z,18.55
2022-09-04T09:37:38.966Z,18.57
2022-09-04T09:42:50.919Z,18.64
2022-09-04T09:48:11.501Z,18.81
2022-09-04T09:53:32.872Z,18.90
2022-09-04T09:58:33.863Z,18.89
2022-09-04T10:03:31.888Z,18.87
2022-09-04T10:08:54.198Z,18.85
2022-09-04T10:13:45.854Z,18.85
2022-09-04T10:19:04.865Z,18.92
2022-09-04T10:24:23.070Z,18.99
2022-09-04T10:29:29.680Z,19.04
2022-09-04T10:34:55.482Z,19.06
2022-09-04T10:40:11.519Z,19.13
2022-09-04T10:45:41.492Z,19.35
2022-09-04T10:51:27.438Z,19.54
2022-09-04T10:56:35.338Z,19.59
2022-09-04T11:01:41.041Z,19.59
2022-09-04T11:06:55.478Z,19.54
2022-09-04T11:12:17.609Z,19.45
2022-09-04T11:17:28.705Z,19.39
2022-09-04T11:22:54.946Z,19.47
2022-09-04T11:28:13.113Z,19.69
2022-09-04T11:33:37.484Z,19.81
2022-09-04T11:38:44.162Z,19.99
2022-09-04T11:48:43.154Z,20.40
2022-09-04T11:53:37.498Z,20.59
2022-09-04T11:58:56.562Z,20.77
2022-09-04T12:04:06.851Z,20.98
2022-09-04T12:09:26.073Z,21.18
2022-09-04T12:14:29.189Z,21.25
2022-09-04T12:20:08.078Z,21.28
2022-09-04T12:25:33.018Z,21.33
2022-09-04T12:30:53.315Z,21.22
2022-09-04T12:36:18.594Z,21.14
2022-09-04T12:41:28.788Z,21.11
2022-09-04T12:46:48.779Z,21.21
2022-09-04T12:51:49.844Z,21.33
2022-09-04T12:57:00.904Z,21.40
2022-09-04T13:02:01.812Z,21.52
2022-09-04T13:07:22.870Z,21.57
2022-09-04T13:12:48.919Z,21.64
2022-09-04T13:18:08.354Z,21.89
2022-09-04T13:23:16.254Z,22.17
2022-09-04T13:28:35.653Z,22.20
2022-09-04T13:33:51.294Z,22.44
2022-09-04T13:39:07.162Z,22.62
2022-09-04T13:44:05.689Z,22.70
2022-09-04T13:49:07.198Z,22.75
2022-09-04T13:54:17.103Z,22.60
2022-09-04T13:59:16.301Z,22.53
2022-09-04T14:04:13.306Z,22.34
2022-09-04T14:09:06.340Z,22.30
2022-09-04T14:14:12.103Z,22.17
2022-09-04T14:19:20.208Z,22.27
2022-09-04T14:24:44.223Z,22.24
2022-09-04T14:29:44.438Z,22.28
2022-09-04T14:34:50.214Z,22.38
2022-09-04T14:39:52.447Z,22.49
2022-09-04T14:45:01.663Z,22.67
2022-09-04T14:49:56.327Z,22.76
2022-09-04T14:54:53.758Z,22.79
2022-09-04T14:59:57.060Z,22.76
2022-09-04T15:05:00.124Z,22.69
2022-09-04T15:09:53.612Z,22.62
2022-09-04T15:14:50.374Z,22.46
2022-09-04T15:19:55.182Z,22.33
2022-09-04T15:24:58.492Z,22.30
2022-09-04T15:29:53.402Z,22.31
2022-09-04T15:34:45.115Z,22.22
2022-09-04T15:39:46.022Z,22.13
2022-09-04T15:44:47.485Z,21.99
2022-09-04T15:50:04.530Z,21.97
2022-09-04T15:55:22.169Z,22.08
2022-09-04T16:00:20.568Z,22.06
2022-09-04T16:05:41.584Z,21.99
2022-09-04T16:10:42.242Z,21.90
2022-09-04T16:15:45.562Z,21.80
2022-09-04T16:20:52.876Z,21.77
2022-09-04T16:25:49.950Z,21.67
2022-09-04T16:30:59.842Z,21.59
2022-09-04T16:35:57.908Z,21.49
2022-09-04T16:40:58.695Z,21.48
2022-09-04T16:46:07.156Z,21.44
2022-09-04T16:51:09.870Z,21.40
2022-09-04T16:56:36.995Z,21.41
2022-09-04T17:01:46.929Z,21.39
2022-09-04T17:07:15.889Z,21.33
2022-09-04T17:12:19.692Z,21.30
2022-09-04T17:17:31.331Z,21.24
2022-09-04T17:29:02.595Z,21.19
2022-09-04T17:29:19.068Z,21.08
2022-09-04T17:37:18.875Z,21.00
2022-09-04T17:40:50.436Z,20.92
2022-09-04T17:44:53.817Z,20.83
2022-09-04T17:49:55.525Z,20.75
2022-09-04T17:54:49.383Z,20.68
2022-09-04T17:59:53.456Z,20.61
2022-09-04T18:05:24.109Z,20.56
2022-09-04T18:10:31.333Z,20.49
2022-09-04T18:15:35.006Z,20.41
2022-09-04T18:20:52.155Z,20.36
2022-09-04T18:25:57.939Z,20.32
2022-09-04T18:37:11.546Z,20.28
2022-09-04T18:37:23.606Z,20.21
2022-09-04T18:49:52.769Z,20.17
2022-09-04T18:50:32.529Z,20.11
2022-09-04T18:53:06.422Z,20.01
2022-09-04T18:58:13.593Z,19.90
2022-09-04T19:03:37.892Z,19.83
2022-09-04T19:08:38.226Z,19.75
2022-09-04T19:13:48.880Z,19.67
2022-09-04T19:18:49.404Z,19.65
2022-09-04T19:23:50.382Z,19.59
2022-09-04T19:28:52.508Z,19.54
2022-09-04T19:34:03.922Z,19.52
2022-09-04T19:45:57.036Z,19.46
2022-09-04T19:46:15.506Z,19.41
2022-09-04T19:53:21.576Z,19.38
2022-09-04T19:55:24.320Z,19.32
2022-09-04T20:00:33.753Z,19.27
2022-09-04T20:05:34.173Z,19.22
2022-09-04T20:10:59.309Z,19.19
2022-09-04T20:16:31.137Z,19.16
2022-09-04T20:21:43.705Z,19.09
2022-09-04T20:26:48.566Z,19.05
2022-09-04T20:32:41.532Z,19.01
2022-09-04T20:37:35.226Z,19.01
2022-09-04T20:42:43.365Z,18.96
2022-09-04T20:53:00.038Z,18.90
2022-09-04T20:53:08.465Z,18.86
2022-09-04T21:02:37.854Z,18.83
2022-09-04T21:03:57.084Z,18.74
2022-09-04T21:09:20.288Z,18.66
2022-09-04T21:14:43.521Z,18.63
2022-09-04T21:19:59.107Z,18.56
2022-09-04T21:24:56.514Z,18.54
2022-09-04T21:29:59.552Z,18.50
2022-09-04T21:35:13.262Z,18.47
2022-09-04T21:40:33.619Z,18.43
2022-09-04T21:45:44.800Z,18.40
2022-09-04T21:50:58.734Z,18.41
2022-09-04T22:02:29.569Z,18.39
2022-09-04T22:02:40.290Z,18.37
2022-09-04T22:09:59.127Z,18.33
2022-09-04T22:13:28.701Z,18.32
2022-09-04T22:18:00.193Z,18.28
2022-09-04T22:23:21.653Z,18.24
2022-09-04T22:28:32.078Z,18.22
2022-09-04T22:33:29.649Z,18.17
2022-09-04T22:38:42.269Z,18.15
2022-09-04T22:43:45.288Z,18.14
2022-09-04T22:49:15.867Z,18.12
2022-09-04T22:54:13.269Z,18.10
2022-09-04T22:59:28.060Z,18.06
2022-09-04T23:04:28.751Z,18.04
2022-09-04T23:13:53.397Z,18.03
2022-09-04T23:15:08.848Z,18.03
2022-09-04T23:26:32.227Z,18.04
2022-09-04T23:26:41.675Z,17.99
2022-09-04T23:31:29.284Z,17.98
2022-09-04T23:36:29.687Z,17.94
2022-09-04T23:42:06.647Z,17.91
2022-09-04T23:47:48.733Z,17.89
2022-09-04T23:52:52.220Z,17.88
2022-09-04T23:58:25.639Z,17.88
